sensor_id;sensor_type;location;lat;lon;timestamp;P1;durP1;ratioP1;P2;durP2;ratioP2
7783;SDS011;19359;51.402;6.778;2023-02-07T00:01:25;29.20;;;14.07;;
7783;SDS011;19359;51.402;6.778;2023-02-07T00:03:52;23.17;;;12.98;;
7783;SDS011;19359;51.402;6.778;2023-02-07T00:06:22;27.15;;;12.15;;
7783;SDS011;19359;51.402;6.778;2023-02-07T00:08:50;23.50;;;12.27;;
7783;SDS011;19359;51.402;6.778;2023-02-07T00:11:18;26.30;;;12.48;;
7783;SDS011;19359;51.402;6.778;2023-02-07T00:13:46;27.48;;;12.65;;
7783;SDS011;19359;51.402;6.778;2023-02-07T00:16:15;22.92;;;12.02;;
7783;SDS011;19359;51.402;6.778;2023-02-07T00:18:42;28.38;;;13.70;;
7783;SDS011;19359;51.402;6.778;2023-02-07T00:21:10;29.55;;;13.60;;
7783;SDS011;19359;51.402;6.778;2023-02-07T00:23:40;27.33;;;11.90;;
7783;SDS011;19359;51.402;6.778;2023-02-07T00:26:07;20.80;;;12.70;;
7783;SDS011;19359;51.402;6.778;2023-02-07T00:28:34;26.23;;;14.02;;
7783;SDS011;19359;51.402;6.778;2023-02-07T00:31:02;22.05;;;11.52;;
7783;SDS011;19359;51.402;6.778;2023-02-07T00:33:30;19.80;;;10.68;;
7783;SDS011;19359;51.402;6.778;2023-02-07T00:35:57;22.10;;;11.77;;
7783;SDS011;19359;51.402;6.778;2023-02-07T00:38:24;33.33;;;13.27;;
7783;SDS011;19359;51.402;6.778;2023-02-07T00:40:52;30.35;;;12.43;;
7783;SDS011;19359;51.402;6.778;2023-02-07T00:43:19;34.20;;;12.48;;
7783;SDS011;19359;51.402;6.778;2023-02-07T00:45:46;32.80;;;13.52;;
7783;SDS011;19359;51.402;6.778;2023-02-07T00:48:13;30.52;;;13.52;;
7783;SDS011;19359;51.402;6.778;2023-02-07T00:50:40;29.52;;;13.02;;
7783;SDS011;19359;51.402;6.778;2023-02-07T00:53:07;23.70;;;11.98;;
7783;SDS011;19359;51.402;6.778;2023-02-07T00:55:34;25.95;;;12.90;;
7783;SDS011;19359;51.402;6.778;2023-02-07T00:58:03;22.33;;;11.93;;
7783;SDS011;19359;51.402;6.778;2023-02-07T01:00:30;27.17;;;12.25;;
7783;SDS011;19359;51.402;6.778;2023-02-07T01:02:57;32.85;;;12.95;;
7783;SDS011;19359;51.402;6.778;2023-02-07T01:05:24;25.90;;;12.88;;
7783;SDS011;19359;51.402;6.778;2023-02-07T01:07:51;34.88;;;12.05;;
7783;SDS011;19359;51.402;6.778;2023-02-07T01:10:18;24.63;;;13.23;;
7783;SDS011;19359;51.402;6.778;2023-02-07T01:12:46;28.50;;;12.15;;
7783;SDS011;19359;51.402;6.778;2023-02-07T01:15:15;34.53;;;11.93;;
7783;SDS011;19359;51.402;6.778;2023-02-07T01:17:42;31.95;;;13.68;;
7783;SDS011;19359;51.402;6.778;2023-02-07T01:20:09;33.70;;;12.55;;
7783;SDS011;19359;51.402;6.778;2023-02-07T01:22:37;25.15;;;12.48;;
7783;SDS011;19359;51.402;6.778;2023-02-07T01:25:04;26.80;;;10.63;;
7783;SDS011;19359;51.402;6.778;2023-02-07T01:27:32;23.58;;;11.35;;
7783;SDS011;19359;51.402;6.778;2023-02-07T01:29:59;28.77;;;12.70;;
7783;SDS011;19359;51.402;6.778;2023-02-07T01:32:28;25.15;;;10.98;;
7783;SDS011;19359;51.402;6.778;2023-02-07T01:34:56;24.55;;;12.82;;
7783;SDS011;19359;51.402;6.778;2023-02-07T01:37:23;32.88;;;12.48;;
7783;SDS011;19359;51.402;6.778;2023-02-07T01:39:50;27.55;;;13.93;;
7783;SDS011;19359;51.402;6.778;2023-02-07T01:42:19;28.85;;;12.27;;
7783;SDS011;19359;51.402;6.778;2023-02-07T01:44:57;22.33;;;11.93;;
7783;SDS011;19359;51.402;6.778;2023-02-07T01:47:31;27.48;;;11.70;;
7783;SDS011;19359;51.402;6.778;2023-02-07T01:50:00;26.02;;;11.00;;
7783;SDS011;19359;51.402;6.778;2023-02-07T01:52:28;35.78;;;11.98;;
7783;SDS011;19359;51.402;6.778;2023-02-07T01:55:00;20.35;;;11.07;;
7783;SDS011;19359;51.402;6.778;2023-02-07T01:57:29;24.13;;;12.30;;
7783;SDS011;19359;51.402;6.778;2023-02-07T01:59:56;30.48;;;12.45;;
7783;SDS011;19359;51.402;6.778;2023-02-07T02:02:24;32.92;;;13.38;;
7783;SDS011;19359;51.402;6.778;2023-02-07T02:04:55;23.95;;;12.38;;
7783;SDS011;19359;51.402;6.778;2023-02-07T02:07:24;32.40;;;12.32;;
7783;SDS011;19359;51.402;6.778;2023-02-07T02:09:51;32.22;;;12.50;;
7783;SDS011;19359;51.402;6.778;2023-02-07T02:12:24;29.58;;;13.00;;
7783;SDS011;19359;51.402;6.778;2023-02-07T02:18:00;22.25;;;11.45;;
7783;SDS011;19359;51.402;6.778;2023-02-07T02:20:51;24.42;;;11.93;;
7783;SDS011;19359;51.402;6.778;2023-02-07T02:23:25;35.28;;;12.73;;
7783;SDS011;19359;51.402;6.778;2023-02-07T02:29:10;29.92;;;12.90;;
7783;SDS011;19359;51.402;6.778;2023-02-07T02:34:42;24.77;;;11.10;;
7783;SDS011;19359;51.402;6.778;2023-02-07T02:37:16;24.17;;;11.98;;
7783;SDS011;19359;51.402;6.778;2023-02-07T02:39:50;30.80;;;12.27;;
7783;SDS011;19359;51.402;6.778;2023-02-07T02:42:24;24.58;;;11.98;;
7783;SDS011;19359;51.402;6.778;2023-02-07T02:44:57;29.55;;;11.38;;
7783;SDS011;19359;51.402;6.778;2023-02-07T02:47:27;25.98;;;12.18;;
7783;SDS011;19359;51.402;6.778;2023-02-07T02:49:57;32.55;;;12.75;;
7783;SDS011;19359;51.402;6.778;2023-02-07T02:52:25;31.75;;;13.40;;
7783;SDS011;19359;51.402;6.778;2023-02-07T02:54:52;25.10;;;12.90;;
7783;SDS011;19359;51.402;6.778;2023-02-07T02:57:26;38.70;;;12.20;;
7783;SDS011;19359;51.402;6.778;2023-02-07T03:00:12;27.42;;;11.82;;
7783;SDS011;19359;51.402;6.778;2023-02-07T03:03:00;26.75;;;11.35;;
7783;SDS011;19359;51.402;6.778;2023-02-07T03:05:47;30.13;;;12.15;;
7783;SDS011;19359;51.402;6.778;2023-02-07T03:08:24;27.55;;;11.25;;
7783;SDS011;19359;51.402;6.778;2023-02-07T03:11:02;24.20;;;11.80;;
7783;SDS011;19359;51.402;6.778;2023-02-07T03:13:34;34.58;;;13.35;;
7783;SDS011;19359;51.402;6.778;2023-02-07T03:16:08;28.08;;;12.35;;
7783;SDS011;19359;51.402;6.778;2023-02-07T03:18:42;25.27;;;11.75;;
7783;SDS011;19359;51.402;6.778;2023-02-07T03:21:16;21.83;;;12.18;;
7783;SDS011;19359;51.402;6.778;2023-02-07T03:23:47;27.92;;;11.80;;
7783;SDS011;19359;51.402;6.778;2023-02-07T03:26:17;36.85;;;11.65;;
7783;SDS011;19359;51.402;6.778;2023-02-07T03:28:46;20.10;;;10.75;;
7783;SDS011;19359;51.402;6.778;2023-02-07T03:31:14;28.10;;;11.25;;
7783;SDS011;19359;51.402;6.778;2023-02-07T03:33:45;26.30;;;11.95;;
7783;SDS011;19359;51.402;6.778;2023-02-07T03:36:16;20.10;;;11.43;;
7783;SDS011;19359;51.402;6.778;2023-02-07T03:38:47;23.95;;;10.23;;
7783;SDS011;19359;51.402;6.778;2023-02-07T03:41:15;20.25;;;10.57;;
7783;SDS011;19359;51.402;6.778;2023-02-07T03:43:49;24.05;;;11.05;;
7783;SDS011;19359;51.402;6.778;2023-02-07T03:46:17;21.15;;;11.80;;
7783;SDS011;19359;51.402;6.778;2023-02-07T03:48:44;23.52;;;11.70;;
7783;SDS011;19359;51.402;6.778;2023-02-07T03:51:11;25.10;;;11.25;;
7783;SDS011;19359;51.402;6.778;2023-02-07T03:53:40;19.83;;;9.98;;
7783;SDS011;19359;51.402;6.778;2023-02-07T03:56:06;25.85;;;11.77;;
7783;SDS011;19359;51.402;6.778;2023-02-07T03:58:34;22.30;;;10.68;;
7783;SDS011;19359;51.402;6.778;2023-02-07T04:01:01;24.92;;;11.65;;
7783;SDS011;19359;51.402;6.778;2023-02-07T04:03:28;25.80;;;10.60;;
7783;SDS011;19359;51.402;6.778;2023-02-07T04:05:55;22.80;;;10.75;;
7783;SDS011;19359;51.402;6.778;2023-02-07T04:08:22;22.17;;;11.20;;
7783;SDS011;19359;51.402;6.778;2023-02-07T04:10:56;20.67;;;9.98;;
7783;SDS011;19359;51.402;6.778;2023-02-07T04:13:24;18.70;;;9.80;;
7783;SDS011;19359;51.402;6.778;2023-02-07T04:15:51;22.05;;;9.93;;
7783;SDS011;19359;51.402;6.778;2023-02-07T04:18:18;27.88;;;10.73;;
7783;SDS011;19359;51.402;6.778;2023-02-07T04:20:45;20.80;;;9.38;;
7783;SDS011;19359;51.402;6.778;2023-02-07T04:23:12;22.23;;;10.60;;
7783;SDS011;19359;51.402;6.778;2023-02-07T04:25:39;22.65;;;10.38;;
7783;SDS011;19359;51.402;6.778;2023-02-07T04:28:08;25.42;;;10.70;;
7783;SDS011;19359;51.402;6.778;2023-02-07T04:30:34;19.10;;;10.10;;
7783;SDS011;19359;51.402;6.778;2023-02-07T04:33:01;18.48;;;10.40;;
7783;SDS011;19359;51.402;6.778;2023-02-07T04:35:29;18.40;;;9.55;;
7783;SDS011;19359;51.402;6.778;2023-02-07T04:37:56;20.73;;;9.73;;
7783;SDS011;19359;51.402;6.778;2023-02-07T04:40:23;18.98;;;8.70;;
7783;SDS011;19359;51.402;6.778;2023-02-07T04:42:50;23.90;;;10.18;;
7783;SDS011;19359;51.402;6.778;2023-02-07T04:45:18;20.08;;;8.98;;
7783;SDS011;19359;51.402;6.778;2023-02-07T04:47:45;15.18;;;8.35;;
7783;SDS011;19359;51.402;6.778;2023-02-07T04:50:12;17.58;;;9.35;;
7783;SDS011;19359;51.402;6.778;2023-02-07T04:52:39;21.65;;;9.02;;
7783;SDS011;19359;51.402;6.778;2023-02-07T04:55:07;18.50;;;9.07;;
7783;SDS011;19359;51.402;6.778;2023-02-07T04:57:34;18.20;;;8.98;;
7783;SDS011;19359;51.402;6.778;2023-02-07T05:00:01;13.35;;;8.80;;
7783;SDS011;19359;51.402;6.778;2023-02-07T05:02:29;21.70;;;9.07;;
7783;SDS011;19359;51.402;6.778;2023-02-07T05:04:56;20.67;;;10.15;;
7783;SDS011;19359;51.402;6.778;2023-02-07T05:07:23;17.98;;;8.48;;
7783;SDS011;19359;51.402;6.778;2023-02-07T05:09:50;17.98;;;9.40;;
7783;SDS011;19359;51.402;6.778;2023-02-07T05:12:17;18.27;;;9.02;;
7783;SDS011;19359;51.402;6.778;2023-02-07T05:14:44;16.92;;;9.18;;
7783;SDS011;19359;51.402;6.778;2023-02-07T05:17:11;23.30;;;9.13;;
7783;SDS011;19359;51.402;6.778;2023-02-07T05:19:40;19.63;;;8.93;;
7783;SDS011;19359;51.402;6.778;2023-02-07T05:22:10;20.33;;;9.13;;
7783;SDS011;19359;51.402;6.778;2023-02-07T05:24:37;14.30;;;8.57;;
7783;SDS011;19359;51.402;6.778;2023-02-07T05:27:04;15.27;;;8.45;;
7783;SDS011;19359;51.402;6.778;2023-02-07T05:29:31;17.25;;;8.98;;
7783;SDS011;19359;51.402;6.778;2023-02-07T05:31:58;23.65;;;8.43;;
7783;SDS011;19359;51.402;6.778;2023-02-07T05:34:44;19.75;;;8.80;;
7783;SDS011;19359;51.402;6.778;2023-02-07T05:37:17;21.50;;;9.88;;
7783;SDS011;19359;51.402;6.778;2023-02-07T05:39:45;22.23;;;9.13;;
7783;SDS011;19359;51.402;6.778;2023-02-07T05:42:17;18.98;;;9.52;;
7783;SDS011;19359;51.402;6.778;2023-02-07T05:44:44;17.52;;;9.20;;
7783;SDS011;19359;51.402;6.778;2023-02-07T05:47:11;14.82;;;7.28;;
7783;SDS011;19359;51.402;6.778;2023-02-07T05:49:38;13.98;;;7.25;;
7783;SDS011;19359;51.402;6.778;2023-02-07T05:52:08;18.85;;;8.60;;
7783;SDS011;19359;51.402;6.778;2023-02-07T05:54:35;14.48;;;9.10;;
7783;SDS011;19359;51.402;6.778;2023-02-07T05:57:04;17.02;;;8.52;;
7783;SDS011;19359;51.402;6.778;2023-02-07T05:59:32;15.32;;;7.90;;
7783;SDS011;19359;51.402;6.778;2023-02-07T06:01:59;15.43;;;8.15;;
7783;SDS011;19359;51.402;6.778;2023-02-07T06:04:26;13.18;;;7.45;;
7783;SDS011;19359;51.402;6.778;2023-02-07T06:06:53;16.45;;;8.57;;
7783;SDS011;19359;51.402;6.778;2023-02-07T06:09:21;17.10;;;8.55;;
7783;SDS011;19359;51.402;6.778;2023-02-07T06:11:48;13.90;;;8.82;;
7783;SDS011;19359;51.402;6.778;2023-02-07T06:14:15;18.45;;;8.15;;
7783;SDS011;19359;51.402;6.778;2023-02-07T06:16:42;19.63;;;9.27;;
7783;SDS011;19359;51.402;6.778;2023-02-07T06:19:09;20.13;;;9.68;;
7783;SDS011;19359;51.402;6.778;2023-02-07T06:21:37;16.92;;;9.25;;
7783;SDS011;19359;51.402;6.778;2023-02-07T06:24:04;18.92;;;8.50;;
7783;SDS011;19359;51.402;6.778;2023-02-07T06:26:33;20.30;;;9.20;;
7783;SDS011;19359;51.402;6.778;2023-02-07T06:29:00;22.45;;;10.52;;
7783;SDS011;19359;51.402;6.778;2023-02-07T06:31:27;17.88;;;9.23;;
7783;SDS011;19359;51.402;6.778;2023-02-07T06:33:54;14.93;;;8.20;;
7783;SDS011;19359;51.402;6.778;2023-02-07T06:36:21;22.17;;;10.13;;
7783;SDS011;19359;51.402;6.778;2023-02-07T06:38:48;18.02;;;9.95;;
7783;SDS011;19359;51.402;6.778;2023-02-07T06:41:18;20.23;;;10.40;;
7783;SDS011;19359;51.402;6.778;2023-02-07T06:43:46;25.33;;;9.95;;
7783;SDS011;19359;51.402;6.778;2023-02-07T06:46:13;27.38;;;10.40;;
7783;SDS011;19359;51.402;6.778;2023-02-07T06:48:40;20.90;;;9.82;;
7783;SDS011;19359;51.402;6.778;2023-02-07T06:51:07;19.50;;;11.15;;
7783;SDS011;19359;51.402;6.778;2023-02-07T06:53:34;24.10;;;10.80;;
7783;SDS011;19359;51.402;6.778;2023-02-07T06:56:01;25.77;;;11.85;;
7783;SDS011;19359;51.402;6.778;2023-02-07T06:58:28;21.45;;;9.70;;
7783;SDS011;19359;51.402;6.778;2023-02-07T07:00:57;21.58;;;9.88;;
7783;SDS011;19359;51.402;6.778;2023-02-07T07:03:25;16.77;;;10.60;;
7783;SDS011;19359;51.402;6.778;2023-02-07T07:05:53;19.15;;;10.90;;
7783;SDS011;19359;51.402;6.778;2023-02-07T07:08:20;25.00;;;11.82;;
7783;SDS011;19359;51.402;6.778;2023-02-07T07:10:47;20.38;;;11.13;;
7783;SDS011;19359;51.402;6.778;2023-02-07T07:13:14;26.38;;;11.40;;
7783;SDS011;19359;51.402;6.778;2023-02-07T07:15:41;23.38;;;11.35;;
7783;SDS011;19359;51.402;6.778;2023-02-07T07:18:10;22.48;;;10.82;;
7783;SDS011;19359;51.402;6.778;2023-02-07T07:20:37;26.48;;;11.27;;
7783;SDS011;19359;51.402;6.778;2023-02-07T07:23:04;27.88;;;11.57;;
7783;SDS011;19359;51.402;6.778;2023-02-07T07:25:31;18.73;;;10.15;;
7783;SDS011;19359;51.402;6.778;2023-02-07T07:27:58;25.20;;;11.95;;
7783;SDS011;19359;51.402;6.778;2023-02-07T07:30:25;24.98;;;11.13;;
7783;SDS011;19359;51.402;6.778;2023-02-07T07:32:52;24.55;;;10.77;;
7783;SDS011;19359;51.402;6.778;2023-02-07T07:35:21;22.95;;;10.77;;
7783;SDS011;19359;51.402;6.778;2023-02-07T07:37:48;19.75;;;10.63;;
7783;SDS011;19359;51.402;6.778;2023-02-07T07:40:15;28.35;;;11.57;;
7783;SDS011;19359;51.402;6.778;2023-02-07T07:42:42;21.17;;;9.73;;
7783;SDS011;19359;51.402;6.778;2023-02-07T07:45:09;24.50;;;11.23;;
7783;SDS011;19359;51.402;6.778;2023-02-07T07:47:37;19.00;;;9.40;;
7783;SDS011;19359;51.402;6.778;2023-02-07T07:50:05;25.08;;;10.55;;
7783;SDS011;19359;51.402;6.778;2023-02-07T07:52:33;17.60;;;8.57;;
7783;SDS011;19359;51.402;6.778;2023-02-07T07:55:00;19.75;;;11.05;;
7783;SDS011;19359;51.402;6.778;2023-02-07T07:57:27;19.95;;;9.82;;
7783;SDS011;19359;51.402;6.778;2023-02-07T07:59:55;18.60;;;8.98;;
7783;SDS011;19359;51.402;6.778;2023-02-07T08:02:22;16.92;;;9.50;;
7783;SDS011;19359;51.402;6.778;2023-02-07T08:04:49;15.95;;;8.85;;
7783;SDS011;19359;51.402;6.778;2023-02-07T08:07:16;19.80;;;9.35;;
7783;SDS011;19359;51.402;6.778;2023-02-07T08:09:45;24.15;;;10.63;;
7783;SDS011;19359;51.402;6.778;2023-02-07T08:12:11;14.82;;;8.68;;
7783;SDS011;19359;51.402;6.778;2023-02-07T08:14:38;13.32;;;7.72;;
7783;SDS011;19359;51.402;6.778;2023-02-07T08:17:05;14.45;;;8.57;;
7783;SDS011;19359;51.402;6.778;2023-02-07T08:19:32;21.85;;;8.82;;
7783;SDS011;19359;51.402;6.778;2023-02-07T08:22:02;16.52;;;8.43;;
7783;SDS011;19359;51.402;6.778;2023-02-07T08:24:29;16.13;;;8.18;;
7783;SDS011;19359;51.402;6.778;2023-02-07T08:26:59;19.30;;;8.23;;
7783;SDS011;19359;51.402;6.778;2023-02-07T08:29:26;16.35;;;9.68;;
7783;SDS011;19359;51.402;6.778;2023-02-07T08:31:53;16.00;;;8.55;;
7783;SDS011;19359;51.402;6.778;2023-02-07T08:34:20;14.95;;;8.15;;
7783;SDS011;19359;51.402;6.778;2023-02-07T08:36:50;12.77;;;8.18;;
7783;SDS011;19359;51.402;6.778;2023-02-07T08:39:17;14.77;;;7.18;;
7783;SDS011;19359;51.402;6.778;2023-02-07T08:41:44;20.55;;;9.32;;
7783;SDS011;19359;51.402;6.778;2023-02-07T08:44:12;16.92;;;8.85;;
7783;SDS011;19359;51.402;6.778;2023-02-07T08:46:39;12.50;;;7.18;;
7783;SDS011;19359;51.402;6.778;2023-02-07T08:49:06;16.52;;;8.02;;
7783;SDS011;19359;51.402;6.778;2023-02-07T08:51:33;14.05;;;8.38;;
7783;SDS011;19359;51.402;6.778;2023-02-07T08:54:00;15.07;;;6.57;;
7783;SDS011;19359;51.402;6.778;2023-02-07T08:56:27;10.07;;;7.13;;
7783;SDS011;19359;51.402;6.778;2023-02-07T08:58:54;14.35;;;7.57;;
7783;SDS011;19359;51.402;6.778;2023-02-07T09:01:23;16.10;;;7.78;;
7783;SDS011;19359;51.402;6.778;2023-02-07T09:03:53;15.25;;;7.85;;
7783;SDS011;19359;51.402;6.778;2023-02-07T09:06:20;12.13;;;6.70;;
7783;SDS011;19359;51.402;6.778;2023-02-07T09:08:47;13.27;;;6.88;;
7783;SDS011;19359;51.402;6.778;2023-02-07T09:11:14;8.88;;;6.65;;
7783;SDS011;19359;51.402;6.778;2023-02-07T09:13:42;10.80;;;6.43;;
7783;SDS011;19359;51.402;6.778;2023-02-07T09:16:10;8.65;;;5.72;;
7783;SDS011;19359;51.402;6.778;2023-02-07T09:18:39;7.38;;;5.15;;
7783;SDS011;19359;51.402;6.778;2023-02-07T09:21:06;8.25;;;5.00;;
7783;SDS011;19359;51.402;6.778;2023-02-07T09:23:34;8.02;;;5.43;;
7783;SDS011;19359;51.402;6.778;2023-02-07T09:26:01;8.68;;;5.00;;
7783;SDS011;19359;51.402;6.778;2023-02-07T09:28:29;9.02;;;6.03;;
7783;SDS011;19359;51.402;6.778;2023-02-07T09:30:56;5.57;;;4.93;;
7783;SDS011;19359;51.402;6.778;2023-02-07T09:33:24;5.65;;;4.68;;
7783;SDS011;19359;51.402;6.778;2023-02-07T09:35:52;7.00;;;4.75;;
7783;SDS011;19359;51.402;6.778;2023-02-07T09:38:19;7.85;;;5.30;;
7783;SDS011;19359;51.402;6.778;2023-02-07T09:40:49;4.60;;;4.13;;
7783;SDS011;19359;51.402;6.778;2023-02-07T09:43:22;10.73;;;5.50;;
7783;SDS011;19359;51.402;6.778;2023-02-07T09:45:56;5.68;;;5.03;;
7783;SDS011;19359;51.402;6.778;2023-02-07T09:48:26;7.25;;;4.60;;
7783;SDS011;19359;51.402;6.778;2023-02-07T09:51:00;6.88;;;4.60;;
7783;SDS011;19359;51.402;6.778;2023-02-07T09:53:32;6.03;;;5.25;;
7783;SDS011;19359;51.402;6.778;2023-02-07T09:56:03;6.95;;;5.20;;
7783;SDS011;19359;51.402;6.778;2023-02-07T09:58:32;5.70;;;4.82;;
7783;SDS011;19359;51.402;6.778;2023-02-07T10:01:06;5.72;;;5.10;;
7783;SDS011;19359;51.402;6.778;2023-02-07T10:03:37;5.68;;;4.60;;
7783;SDS011;19359;51.402;6.778;2023-02-07T10:06:10;6.03;;;4.68;;
7783;SDS011;19359;51.402;6.778;2023-02-07T10:08:42;7.05;;;5.07;;
7783;SDS011;19359;51.402;6.778;2023-02-07T10:11:12;5.80;;;4.45;;
7783;SDS011;19359;51.402;6.778;2023-02-07T10:13:51;4.93;;;4.53;;
7783;SDS011;19359;51.402;6.778;2023-02-07T10:16:28;10.20;;;4.97;;
7783;SDS011;19359;51.402;6.778;2023-02-07T10:19:10;7.32;;;5.30;;
7783;SDS011;19359;51.402;6.778;2023-02-07T10:21:48;5.38;;;4.90;;
7783;SDS011;19359;51.402;6.778;2023-02-07T10:24:25;12.50;;;4.78;;
7783;SDS011;19359;51.402;6.778;2023-02-07T10:27:10;5.07;;;4.68;;
7783;SDS011;19359;51.402;6.778;2023-02-07T10:29:47;8.40;;;5.00;;
7783;SDS011;19359;51.402;6.778;2023-02-07T10:32:19;7.10;;;4.50;;
7783;SDS011;19359;51.402;6.778;2023-02-07T10:34:47;8.60;;;5.05;;
7783;SDS011;19359;51.402;6.778;2023-02-07T10:37:21;5.78;;;5.18;;
7783;SDS011;19359;51.402;6.778;2023-02-07T10:39:51;6.53;;;5.10;;
7783;SDS011;19359;51.402;6.778;2023-02-07T10:42:25;6.97;;;4.80;;
7783;SDS011;19359;51.402;6.778;2023-02-07T10:44:53;6.30;;;4.35;;
7783;SDS011;19359;51.402;6.778;2023-02-07T10:47:21;6.70;;;5.22;;
7783;SDS011;19359;51.402;6.778;2023-02-07T10:49:50;6.07;;;4.85;;
7783;SDS011;19359;51.402;6.778;2023-02-07T10:52:26;5.32;;;4.43;;
7783;SDS011;19359;51.402;6.778;2023-02-07T10:54:58;4.35;;;3.83;;
7783;SDS011;19359;51.402;6.778;2023-02-07T10:57:26;5.43;;;4.22;;
7783;SDS011;19359;51.402;6.778;2023-02-07T10:59:58;5.30;;;4.18;;
7783;SDS011;19359;51.402;6.778;2023-02-07T11:02:37;12.20;;;3.78;;
7783;SDS011;19359;51.402;6.778;2023-02-07T11:08:04;4.90;;;3.67;;
7783;SDS011;19359;51.402;6.778;2023-02-07T11:10:41;4.60;;;4.18;;
7783;SDS011;19359;51.402;6.778;2023-02-07T11:13:10;4.90;;;4.40;;
7783;SDS011;19359;51.402;6.778;2023-02-07T11:15:45;4.93;;;3.78;;
7783;SDS011;19359;51.402;6.778;2023-02-07T11:18:30;8.18;;;4.43;;
7783;SDS011;19359;51.402;6.778;2023-02-07T11:21:02;4.18;;;3.75;;
7783;SDS011;19359;51.402;6.778;2023-02-07T11:23:32;4.28;;;3.17;;
7783;SDS011;19359;51.402;6.778;2023-02-07T11:25:59;5.93;;;4.05;;
7783;SDS011;19359;51.402;6.778;2023-02-07T11:28:27;5.55;;;4.70;;
7783;SDS011;19359;51.402;6.778;2023-02-07T11:30:57;4.28;;;3.88;;
7783;SDS011;19359;51.402;6.778;2023-02-07T11:33:28;7.15;;;4.20;;
7783;SDS011;19359;51.402;6.778;2023-02-07T11:36:02;5.00;;;4.35;;
7783;SDS011;19359;51.402;6.778;2023-02-07T11:38:37;8.75;;;4.53;;
7783;SDS011;19359;51.402;6.778;2023-02-07T11:41:09;4.25;;;3.88;;
7783;SDS011;19359;51.402;6.778;2023-02-07T11:43:50;4.93;;;4.10;;
7783;SDS011;19359;51.402;6.778;2023-02-07T11:46:18;7.95;;;3.90;;
7783;SDS011;19359;51.402;6.778;2023-02-07T11:48:46;3.25;;;3.05;;
7783;SDS011;19359;51.402;6.778;2023-02-07T11:51:15;3.92;;;3.60;;
7783;SDS011;19359;51.402;6.778;2023-02-07T11:53:46;3.50;;;3.25;;
7783;SDS011;19359;51.402;6.778;2023-02-07T11:56:25;3.63;;;3.33;;
7783;SDS011;19359;51.402;6.778;2023-02-07T11:58:55;3.97;;;3.42;;
7783;SDS011;19359;51.402;6.778;2023-02-07T12:01:24;3.78;;;3.53;;
7783;SDS011;19359;51.402;6.778;2023-02-07T12:03:54;5.15;;;3.33;;
7783;SDS011;19359;51.402;6.778;2023-02-07T12:06:25;5.70;;;3.90;;
7783;SDS011;19359;51.402;6.778;2023-02-07T12:08:58;4.30;;;3.03;;
7783;SDS011;19359;51.402;6.778;2023-02-07T12:11:27;3.58;;;2.78;;
7783;SDS011;19359;51.402;6.778;2023-02-07T12:14:01;6.60;;;3.63;;
7783;SDS011;19359;51.402;6.778;2023-02-07T12:16:34;4.18;;;3.83;;
7783;SDS011;19359;51.402;6.778;2023-02-07T12:19:05;3.80;;;3.50;;
7783;SDS011;19359;51.402;6.778;2023-02-07T12:21:40;3.78;;;3.47;;
7783;SDS011;19359;51.402;6.778;2023-02-07T12:24:14;7.75;;;3.75;;
7783;SDS011;19359;51.402;6.778;2023-02-07T12:26:46;7.10;;;4.50;;
7783;SDS011;19359;51.402;6.778;2023-02-07T12:29:21;5.25;;;3.42;;
7783;SDS011;19359;51.402;6.778;2023-02-07T12:31:53;3.97;;;3.60;;
7783;SDS011;19359;51.402;6.778;2023-02-07T12:34:26;3.88;;;3.08;;
7783;SDS011;19359;51.402;6.778;2023-02-07T12:36:59;3.78;;;3.35;;
7783;SDS011;19359;51.402;6.778;2023-02-07T12:39:35;3.35;;;3.15;;
7783;SDS011;19359;51.402;6.778;2023-02-07T12:42:12;3.28;;;2.97;;
7783;SDS011;19359;51.402;6.778;2023-02-07T12:44:50;3.33;;;3.13;;
7783;SDS011;19359;51.402;6.778;2023-02-07T12:47:20;4.07;;;3.08;;
7783;SDS011;19359;51.402;6.778;2023-02-07T12:50:01;2.63;;;2.47;;
7783;SDS011;19359;51.402;6.778;2023-02-07T12:52:40;3.22;;;2.95;;
7783;SDS011;19359;51.402;6.778;2023-02-07T12:55:18;2.60;;;2.40;;
7783;SDS011;19359;51.402;6.778;2023-02-07T12:57:59;3.38;;;2.60;;
7783;SDS011;19359;51.402;6.778;2023-02-07T13:00:45;2.22;;;2.13;;
7783;SDS011;19359;51.402;6.778;2023-02-07T13:03:24;2.45;;;2.08;;
7783;SDS011;19359;51.402;6.778;2023-02-07T13:06:09;3.13;;;2.00;;
7783;SDS011;19359;51.402;6.778;2023-02-07T13:08:43;3.08;;;2.85;;
7783;SDS011;19359;51.402;6.778;2023-02-07T13:11:16;2.03;;;1.92;;
7783;SDS011;19359;51.402;6.778;2023-02-07T13:13:53;2.05;;;1.92;;
7783;SDS011;19359;51.402;6.778;2023-02-07T13:16:26;1.90;;;1.80;;
7783;SDS011;19359;51.402;6.778;2023-02-07T13:19:03;1.85;;;1.75;;
7783;SDS011;19359;51.402;6.778;2023-02-07T13:21:37;2.85;;;2.60;;
7783;SDS011;19359;51.402;6.778;2023-02-07T13:24:09;3.80;;;3.20;;
7783;SDS011;19359;51.402;6.778;2023-02-07T13:26:41;3.58;;;2.85;;
7783;SDS011;19359;51.402;6.778;2023-02-07T13:29:14;2.55;;;2.35;;
7783;SDS011;19359;51.402;6.778;2023-02-07T13:31:43;2.58;;;2.47;;
7783;SDS011;19359;51.402;6.778;2023-02-07T13:34:13;3.47;;;2.65;;
7783;SDS011;19359;51.402;6.778;2023-02-07T13:36:42;2.75;;;2.53;;
7783;SDS011;19359;51.402;6.778;2023-02-07T13:39:20;4.65;;;2.90;;
7783;SDS011;19359;51.402;6.778;2023-02-07T13:41:56;3.78;;;2.97;;
7783;SDS011;19359;51.402;6.778;2023-02-07T13:44:33;3.10;;;2.80;;
7783;SDS011;19359;51.402;6.778;2023-02-07T13:47:11;4.18;;;2.78;;
7783;SDS011;19359;51.402;6.778;2023-02-07T13:49:59;4.65;;;3.15;;
7783;SDS011;19359;51.402;6.778;2023-02-07T13:52:33;4.22;;;3.70;;
7783;SDS011;19359;51.402;6.778;2023-02-07T13:55:08;5.10;;;3.10;;
7783;SDS011;19359;51.402;6.778;2023-02-07T13:57:45;5.30;;;3.08;;
7783;SDS011;19359;51.402;6.778;2023-02-07T14:00:30;6.85;;;3.42;;
7783;SDS011;19359;51.402;6.778;2023-02-07T14:03:01;4.70;;;3.17;;
7783;SDS011;19359;51.402;6.778;2023-02-07T14:05:30;4.75;;;3.10;;
7783;SDS011;19359;51.402;6.778;2023-02-07T14:08:00;3.42;;;2.65;;
7783;SDS011;19359;51.402;6.778;2023-02-07T14:10:34;6.55;;;3.17;;
7783;SDS011;19359;51.402;6.778;2023-02-07T14:13:19;4.78;;;4.25;;
7783;SDS011;19359;51.402;6.778;2023-02-07T14:15:57;25.48;;;11.93;;
7783;SDS011;19359;51.402;6.778;2023-02-07T14:18:33;9.65;;;7.18;;
7783;SDS011;19359;51.402;6.778;2023-02-07T14:21:19;5.88;;;4.35;;
7783;SDS011;19359;51.402;6.778;2023-02-07T14:23:49;7.13;;;4.75;;
7783;SDS011;19359;51.402;6.778;2023-02-07T14:26:48;4.95;;;4.28;;
7783;SDS011;19359;51.402;6.778;2023-02-07T14:32:36;3.78;;;3.47;;
7783;SDS011;19359;51.402;6.778;2023-02-07T14:35:05;4.10;;;3.80;;
7783;SDS011;19359;51.402;6.778;2023-02-07T14:37:58;7.75;;;3.90;;
7783;SDS011;19359;51.402;6.778;2023-02-07T14:40:27;5.22;;;4.75;;
7783;SDS011;19359;51.402;6.778;2023-02-07T14:43:01;4.15;;;3.30;;
7783;SDS011;19359;51.402;6.778;2023-02-07T14:45:30;4.13;;;3.85;;
7783;SDS011;19359;51.402;6.778;2023-02-07T14:48:00;13.75;;;7.93;;
7783;SDS011;19359;51.402;6.778;2023-02-07T14:50:28;6.10;;;4.20;;
7783;SDS011;19359;51.402;6.778;2023-02-07T14:52:57;4.45;;;3.88;;
7783;SDS011;19359;51.402;6.778;2023-02-07T14:55:29;4.07;;;3.72;;
7783;SDS011;19359;51.402;6.778;2023-02-07T14:58:00;6.22;;;4.45;;
7783;SDS011;19359;51.402;6.778;2023-02-07T15:00:31;6.15;;;4.30;;
7783;SDS011;19359;51.402;6.778;2023-02-07T15:03:09;7.80;;;5.00;;
7783;SDS011;19359;51.402;6.778;2023-02-07T15:05:38;5.78;;;5.22;;
7783;SDS011;19359;51.402;6.778;2023-02-07T15:08:15;5.05;;;3.97;;
7783;SDS011;19359;51.402;6.778;2023-02-07T15:10:44;6.70;;;4.15;;
7783;SDS011;19359;51.402;6.778;2023-02-07T15:13:19;4.00;;;3.70;;
7783;SDS011;19359;51.402;6.778;2023-02-07T15:15:50;12.55;;;3.55;;
7783;SDS011;19359;51.402;6.778;2023-02-07T15:18:21;3.50;;;3.20;;
7783;SDS011;19359;51.402;6.778;2023-02-07T15:20:51;3.55;;;3.22;;
7783;SDS011;19359;51.402;6.778;2023-02-07T15:23:19;6.75;;;3.55;;